createdAt,value
2023-03-06T00:01:34.415Z,67.77
2023-03-06T00:04:01.029Z,67.62
2023-03-06T00:06:27.655Z,67.89
2023-03-06T00:08:54.679Z,67.67
2023-03-06T00:11:21.257Z,67.69
2023-03-06T00:13:47.811Z,68.05
2023-03-06T00:16:14.980Z,67.74
2023-03-06T00:18:44.008Z,67.71
2023-03-06T00:21:10.493Z,67.42
2023-03-06T00:23:37.113Z,67.52
2023-03-06T00:26:07.669Z,67.22
2023-03-06T00:28:35.407Z,67.18
2023-03-06T00:31:02.207Z,67.46
2023-03-06T00:33:28.824Z,67.79
2023-03-06T00:35:55.294Z,67.76
2023-03-06T00:38:21.810Z,67.31
2023-03-06T00:40:49.229Z,67.42
2023-03-06T00:43:15.945Z,67.38
2023-03-06T00:45:43.027Z,67.30
2023-03-06T00:48:10.860Z,67.28
2023-03-06T00:50:37.572Z,67.14
2023-03-06T00:53:04.128Z,66.91
2023-03-06T00:55:31.124Z,66.93
2023-03-06T00:57:57.682Z,67.22
2023-03-06T01:00:26.359Z,66.85
2023-03-06T01:02:53.691Z,67.22
2023-03-06T01:05:22.093Z,67.48
2023-03-06T01:07:48.558Z,67.39
2023-03-06T01:10:15.187Z,67.03
2023-03-06T01:12:41.835Z,67.13
2023-03-06T01:15:09.136Z,67.15
2023-03-06T01:17:36.008Z,67.17
2023-03-06T01:20:03.155Z,66.88
2023-03-06T01:22:30.409Z,66.98
2023-03-06T01:24:57.002Z,67.20
2023-03-06T01:27:23.688Z,67.30
2023-03-06T01:29:50.224Z,67.00
2023-03-06T01:32:16.755Z,67.17
2023-03-06T01:34:43.433Z,67.03
2023-03-06T01:37:10.168Z,67.01
2023-03-06T01:39:36.661Z,67.16
2023-03-06T01:42:03.354Z,67.35
2023-03-06T01:44:30.370Z,67.04
2023-03-06T01:46:56.856Z,67.34
2023-03-06T01:49:31.102Z,67.26
2023-03-06T01:52:02.132Z,67.26
2023-03-06T01:54:31.903Z,67.35
2023-03-06T01:57:09.342Z,67.53
2023-03-06T01:59:36.202Z,67.29
2023-03-06T02:02:03.861Z,67.29
2023-03-06T02:04:30.772Z,67.31
2023-03-06T02:06:59.334Z,67.12
2023-03-06T02:09:30.096Z,67.15
2023-03-06T02:11:56.632Z,67.39
2023-03-06T02:14:23.480Z,67.23
2023-03-06T02:16:50.661Z,67.34
2023-03-06T02:19:26.660Z,67.15
2023-03-06T02:21:53.190Z,67.40
2023-03-06T02:24:38.378Z,67.38
2023-03-06T02:27:06.901Z,67.23
2023-03-06T02:29:33.665Z,67.20
2023-03-06T02:32:02.844Z,67.19
2023-03-06T02:34:29.391Z,67.25
2023-03-06T02:37:00.808Z,67.21
2023-03-06T02:39:30.228Z,67.20
2023-03-06T02:41:57.023Z,67.26
2023-03-06T02:44:24.467Z,67.32
2023-03-06T02:46:51.261Z,67.28
2023-03-06T02:49:18.052Z,67.42
2023-03-06T02:51:44.700Z,67.36
2023-03-06T02:54:11.944Z,67.33
2023-03-06T02:56:38.629Z,67.35
2023-03-06T02:59:10.793Z,67.42
2023-03-06T03:01:38.092Z,67.36
2023-03-06T03:04:04.822Z,67.65
2023-03-06T03:06:32.409Z,67.43
2023-03-06T03:08:59.230Z,67.51
2023-03-06T03:11:25.854Z,67.50
2023-03-06T03:13:53.192Z,67.62
2023-03-06T03:16:23.806Z,67.65
2023-03-06T03:18:51.166Z,67.57
2023-03-06T03:21:20.425Z,67.59
2023-03-06T03:23:48.223Z,67.81
2023-03-06T03:26:17.837Z,67.85
2023-03-06T03:28:50.194Z,68.00
2023-03-06T03:31:19.560Z,67.95
2023-03-06T03:33:46.512Z,68.00
2023-03-06T03:36:13.669Z,68.11
2023-03-06T03:38:44.349Z,67.99
2023-03-06T03:41:11.669Z,68.08
2023-03-06T03:43:38.365Z,68.00
2023-03-06T03:46:06.059Z,68.09
2023-03-06T03:48:33.443Z,68.25
2023-03-06T03:51:11.826Z,68.08
2023-03-06T03:53:44.197Z,68.32
2023-03-06T03:56:13.242Z,68.45
2023-03-06T03:58:48.596Z,68.28
2023-03-06T04:01:15.914Z,68.47
2023-03-06T04:03:42.706Z,68.38
2023-03-06T04:06:10.649Z,68.32
2023-03-06T04:08:38.166Z,68.10
2023-03-06T04:11:05.241Z,68.33
2023-03-06T04:13:32.392Z,68.40
2023-03-06T04:15:59.757Z,68.36
2023-03-06T04:18:28.680Z,68.41
2023-03-06T04:20:59.427Z,68.60
2023-03-06T04:23:27.885Z,68.22
2023-03-06T04:25:54.903Z,68.39
2023-03-06T04:28:22.442Z,68.25
2023-03-06T04:30:49.406Z,68.60
2023-03-06T04:33:17.456Z,68.81
2023-03-06T04:35:44.585Z,68.68
2023-03-06T04:38:17.562Z,68.67
2023-03-06T04:40:45.618Z,68.77
2023-03-06T04:43:12.533Z,68.72
2023-03-06T04:45:39.170Z,68.97
2023-03-06T04:48:06.254Z,68.77
2023-03-06T04:50:33.315Z,68.91
2023-03-06T04:53:01.312Z,69.06
2023-03-06T04:55:28.364Z,69.07
2023-03-06T04:57:55.308Z,69.14
2023-03-06T05:00:24.661Z,69.35
2023-03-06T05:02:51.408Z,69.35
2023-03-06T05:05:18.631Z,69.49
2023-03-06T05:07:45.215Z,69.63
2023-03-06T05:10:13.785Z,69.64
2023-03-06T05:12:40.380Z,69.72
2023-03-06T05:15:08.189Z,70.21
2023-03-06T05:17:34.762Z,70.34
2023-03-06T05:20:01.415Z,70.70
2023-03-06T05:22:28.139Z,70.96
2023-03-06T05:24:54.722Z,71.06
2023-03-06T05:27:21.586Z,71.41
2023-03-06T05:29:48.445Z,71.42
2023-03-06T05:32:16.404Z,71.49
2023-03-06T05:34:43.334Z,71.75
2023-03-06T05:37:10.073Z,71.59
2023-03-06T05:39:37.449Z,71.74
2023-03-06T05:42:04.401Z,71.82
2023-03-06T05:44:33.320Z,71.83
2023-03-06T05:47:00.476Z,71.83
2023-03-06T05:49:31.916Z,71.80
2023-03-06T05:52:00.852Z,71.66
2023-03-06T05:54:27.438Z,71.72
2023-03-06T05:56:54.084Z,71.52
2023-03-06T05:59:20.757Z,71.75
2023-03-06T06:01:47.605Z,71.77
2023-03-06T06:04:14.371Z,71.75
2023-03-06T06:06:41.043Z,71.60
2023-03-06T06:09:07.880Z,71.68
2023-03-06T06:11:34.568Z,71.59
2023-03-06T06:14:01.407Z,71.71
2023-03-06T06:16:28.190Z,71.76
2023-03-06T06:18:54.868Z,71.73
2023-03-06T06:21:21.457Z,71.71
2023-03-06T06:23:48.229Z,71.71
2023-03-06T06:26:14.978Z,71.74
2023-03-06T06:28:41.841Z,71.91
2023-03-06T06:31:10.450Z,71.91
2023-03-06T06:33:37.063Z,71.94
2023-03-06T06:36:03.839Z,72.27
2023-03-06T06:38:30.435Z,71.84
2023-03-06T06:41:27.203Z,72.07
2023-03-06T06:43:43.495Z,72.13
2023-03-06T06:46:38.842Z,72.25
2023-03-06T06:48:56.356Z,72.45
2023-03-06T06:51:23.145Z,72.63
2023-03-06T06:53:52.636Z,72.67
2023-03-06T06:56:19.180Z,72.57
2023-03-06T06:58:45.737Z,72.74
2023-03-06T07:01:13.337Z,73.00
2023-03-06T07:03:40.606Z,72.93
2023-03-06T07:06:07.366Z,72.78
2023-03-06T07:08:34.476Z,72.99
2023-03-06T07:11:09.890Z,72.93
2023-03-06T07:13:36.445Z,73.10
2023-03-06T07:16:03.064Z,73.11
2023-03-06T07:18:30.130Z,73.27
2023-03-06T07:20:57.114Z,73.17
2023-03-06T07:23:26.403Z,73.25
2023-03-06T07:25:56.873Z,73.32
2023-03-06T07:28:23.669Z,73.29
2023-03-06T07:30:50.257Z,73.43
2023-03-06T07:33:16.913Z,72.90
2023-03-06T07:35:44.216Z,72.88
2023-03-06T07:38:10.954Z,73.20
2023-03-06T07:40:38.746Z,73.40
2023-03-06T07:43:18.775Z,73.16
2023-03-06T07:45:59.616Z,73.06
2023-03-06T07:48:27.357Z,72.78
2023-03-06T07:51:02.200Z,72.54
2023-03-06T07:53:29.675Z,72.44
2023-03-06T07:55:56.411Z,72.43
2023-03-06T07:58:23.487Z,72.57
2023-03-06T08:00:49.926Z,72.47
2023-03-06T08:03:16.481Z,72.29
2023-03-06T08:05:44.151Z,72.51
2023-03-06T08:08:11.236Z,72.40
2023-03-06T08:10:37.778Z,72.61
2023-03-06T08:13:04.717Z,72.67
2023-03-06T08:15:31.195Z,72.69
2023-03-06T08:17:57.613Z,72.71
2023-03-06T08:20:24.065Z,72.64
2023-03-06T08:22:50.472Z,72.63
2023-03-06T08:25:16.995Z,72.85
2023-03-06T08:27:43.713Z,72.97
2023-03-06T08:30:10.573Z,72.95
2023-03-06T08:32:37.557Z,73.01
2023-03-06T08:35:04.831Z,73.12
2023-03-06T08:37:31.321Z,73.03
2023-03-06T08:39:57.773Z,72.94
2023-03-06T08:42:24.267Z,72.90
2023-03-06T08:44:50.736Z,72.89
2023-03-06T08:47:17.157Z,72.96
2023-03-06T08:49:43.609Z,72.99
2023-03-06T08:52:11.026Z,73.00
2023-03-06T08:54:38.562Z,73.11
2023-03-06T08:57:05.018Z,72.92
2023-03-06T08:59:31.405Z,73.07
2023-03-06T09:01:57.909Z,73.05
2023-03-06T09:04:24.396Z,73.04
2023-03-06T09:06:50.974Z,73.03
2023-03-06T09:09:17.644Z,73.08
2023-03-06T09:11:44.058Z,72.78
2023-03-06T09:14:10.564Z,72.68
2023-03-06T09:16:36.986Z,72.70
2023-03-06T09:19:03.435Z,72.68
2023-03-06T09:21:29.856Z,72.63
2023-03-06T09:23:56.348Z,72.67
2023-03-06T09:26:28.032Z,72.33
2023-03-06T09:28:59.509Z,72.37
2023-03-06T09:31:26.028Z,72.21
2023-03-06T09:33:52.456Z,71.98
2023-03-06T09:36:20.819Z,71.70
2023-03-06T09:38:49.618Z,71.54
2023-03-06T09:41:33.290Z,71.49
2023-03-06T09:44:20.560Z,71.24
2023-03-06T09:47:18.978Z,70.88
2023-03-06T09:50:00.898Z,70.90
2023-03-06T09:52:45.901Z,71.02
2023-03-06T09:55:19.308Z,70.57
2023-03-06T09:58:07.501Z,70.72
2023-03-06T10:00:38.465Z,70.63
2023-03-06T10:03:16.088Z,70.47
2023-03-06T10:05:47.038Z,70.36
2023-03-06T10:08:30.292Z,70.08
2023-03-06T10:11:03.496Z,69.80
2023-03-06T10:13:45.961Z,69.59
2023-03-06T10:16:29.623Z,69.56
2023-03-06T10:19:00.470Z,69.55
2023-03-06T10:22:02.968Z,69.51
2023-03-06T10:24:43.228Z,69.24
2023-03-06T10:27:39.808Z,69.20
2023-03-06T10:30:20.968Z,69.15
2023-03-06T10:33:02.111Z,68.35
2023-03-06T10:35:32.026Z,68.14
2023-03-06T10:38:21.506Z,67.80
2023-03-06T10:40:55.741Z,67.94
2023-03-06T10:43:22.680Z,67.68
2023-03-06T10:45:51.627Z,67.39
2023-03-06T10:48:27.105Z,66.98
2023-03-06T10:51:21.090Z,66.70
2023-03-06T10:53:55.126Z,66.16
2023-03-06T10:56:28.747Z,65.92
2023-03-06T10:59:18.186Z,65.68
2023-03-06T11:01:50.087Z,65.30
2023-03-06T11:04:24.015Z,64.98
2023-03-06T11:07:15.941Z,64.54
2023-03-06T11:09:44.387Z,64.31
2023-03-06T11:12:37.697Z,64.18
2023-03-06T11:15:07.480Z,64.29
2023-03-06T11:17:37.249Z,63.72
2023-03-06T11:20:20.691Z,63.53
2023-03-06T11:22:51.240Z,63.66
2023-03-06T11:25:19.149Z,63.42
2023-03-06T11:27:47.272Z,63.35
2023-03-06T11:30:23.831Z,63.36
2023-03-06T11:33:02.922Z,62.54
2023-03-06T11:35:47.273Z,61.98
2023-03-06T11:38:19.190Z,61.67
2023-03-06T11:40:58.683Z,61.24
2023-03-06T11:43:29.956Z,61.27
2023-03-06T11:46:00.588Z,61.23
2023-03-06T11:48:32.409Z,61.29
2023-03-06T11:51:06.518Z,60.72
2023-03-06T11:53:35.289Z,60.81
2023-03-06T11:56:23.399Z,60.64
2023-03-06T11:59:20.840Z,60.89
2023-03-06T12:01:51.646Z,60.94
2023-03-06T12:04:36.711Z,61.32
2023-03-06T12:07:07.607Z,61.32
2023-03-06T12:09:51.961Z,60.54
2023-03-06T12:12:32.855Z,60.32
2023-03-06T12:15:08.667Z,60.45
2023-03-06T12:17:44.672Z,60.65
2023-03-06T12:20:23.367Z,60.79
2023-03-06T12:23:02.401Z,60.61
2023-03-06T12:25:42.071Z,60.81
2023-03-06T12:28:42.383Z,60.55
2023-03-06T12:31:15.679Z,60.40
2023-03-06T12:34:09.844Z,60.17
2023-03-06T12:36:51.736Z,59.27
2023-03-06T12:39:48.153Z,59.49
2023-03-06T12:42:40.731Z,59.69
2023-03-06T12:45:34.954Z,59.78
2023-03-06T12:48:02.050Z,59.95
2023-03-06T12:50:33.488Z,60.18
2023-03-06T12:53:05.796Z,59.98
2023-03-06T12:55:46.610Z,59.62
2023-03-06T12:58:28.114Z,59.86
2023-03-06T13:01:09.630Z,59.57
2023-03-06T13:04:02.710Z,59.35
2023-03-06T13:06:39.246Z,59.51
2023-03-06T13:09:18.940Z,59.13
2023-03-06T13:12:17.260Z,59.04
2023-03-06T13:14:53.862Z,59.13
2023-03-06T13:17:20.850Z,59.11
2023-03-06T13:19:47.952Z,59.08
2023-03-06T13:22:26.652Z,58.88
2023-03-06T13:25:33.322Z,58.87
2023-03-06T13:28:03.321Z,58.79
2023-03-06T13:30:38.642Z,58.64
2023-03-06T13:33:26.486Z,58.40
2023-03-06T13:35:54.009Z,58.63
2023-03-06T13:38:37.093Z,58.72
2023-03-06T13:41:21.910Z,59.13
2023-03-06T13:43:53.157Z,58.65
2023-03-06T13:46:27.274Z,58.23
2023-03-06T13:49:15.503Z,58.37
2023-03-06T13:51:47.493Z,58.63
2023-03-06T13:54:25.388Z,58.80
2023-03-06T13:57:13.795Z,58.90
2023-03-06T14:00:10.349Z,58.61
2023-03-06T14:02:48.956Z,58.65
2023-03-06T14:05:17.142Z,58.37
2023-03-06T14:07:48.024Z,58.43
2023-03-06T14:10:14.390Z,58.77
2023-03-06T14:12:44.354Z,58.41
2023-03-06T14:15:25.410Z,58.32
2023-03-06T14:18:01.747Z,58.26
2023-03-06T14:20:44.209Z,58.17
2023-03-06T14:23:51.284Z,58.04
2023-03-06T14:26:20.252Z,57.76
2023-03-06T14:28:56.461Z,57.88
2023-03-06T14:31:24.954Z,57.73
2023-03-06T14:33:59.902Z,57.40
2023-03-06T14:36:32.391Z,57.62
2023-03-06T14:39:04.126Z,57.31
2023-03-06T14:41:32.693Z,57.55
2023-03-06T14:44:16.572Z,57.79
2023-03-06T14:46:47.288Z,57.86
2023-03-06T14:49:15.300Z,58.03
2023-03-06T14:51:44.342Z,58.28
2023-03-06T14:54:15.786Z,58.76
2023-03-06T14:56:44.009Z,59.23
2023-03-06T14:59:12.471Z,59.83
2023-03-06T15:01:42.053Z,59.82
2023-03-06T15:04:23.379Z,59.92
2023-03-06T15:06:49.997Z,60.03
2023-03-06T15:09:24.368Z,60.13
2023-03-06T15:12:02.757Z,60.26
2023-03-06T15:14:32.143Z,60.35
2023-03-06T15:17:16.922Z,60.76
2023-03-06T15:19:47.453Z,60.88
2023-03-06T15:22:30.712Z,60.96
2023-03-06T15:25:22.784Z,60.96
2023-03-06T15:27:51.557Z,60.81
2023-03-06T15:30:30.233Z,60.86
2023-03-06T15:33:17.943Z,61.00
2023-03-06T15:36:01.616Z,61.00
2023-03-06T15:38:40.794Z,61.30
2023-03-06T15:41:21.058Z,61.58
2023-03-06T15:43:48.623Z,61.59
2023-03-06T15:46:15.107Z,61.81
2023-03-06T15:48:54.930Z,62.58
2023-03-06T15:51:21.379Z,63.66
2023-03-06T15:53:47.960Z,65.27
2023-03-06T15:56:14.389Z,66.32
2023-03-06T15:58:41.342Z,67.52
2023-03-06T16:01:13.177Z,68.50
2023-03-06T16:03:39.627Z,69.03
2023-03-06T16:06:06.046Z,69.35
2023-03-06T16:08:32.475Z,69.61
2023-03-06T16:10:59.111Z,69.97
2023-03-06T16:13:27.258Z,70.31
2023-03-06T16:15:54.336Z,70.60
2023-03-06T16:18:20.828Z,70.69
2023-03-06T16:20:47.257Z,70.73
2023-03-06T16:23:15.252Z,70.38
2023-03-06T16:25:43.604Z,70.44
2023-03-06T16:28:12.184Z,70.44
2023-03-06T16:30:38.839Z,70.36
2023-03-06T16:33:05.649Z,70.35
2023-03-06T16:35:32.072Z,70.30
2023-03-06T16:37:59.850Z,70.16
2023-03-06T16:40:32.422Z,70.13
2023-03-06T16:42:59.056Z,69.90
2023-03-06T16:45:25.517Z,70.10
2023-03-06T16:47:52.151Z,70.10
2023-03-06T16:50:40.535Z,70.18
2023-03-06T16:53:07.693Z,69.82
2023-03-06T16:55:34.688Z,69.97
2023-03-06T16:58:01.128Z,69.82
2023-03-06T17:00:32.909Z,69.64
2023-03-06T17:03:00.859Z,69.77
2023-03-06T17:05:28.660Z,69.34
2023-03-06T17:07:55.773Z,69.29
2023-03-06T17:10:26.140Z,69.37
2023-03-06T17:12:52.986Z,69.39
2023-03-06T17:15:19.772Z,69.46
2023-03-06T17:17:46.327Z,69.72
2023-03-06T17:20:13.505Z,69.65
2023-03-06T17:22:41.408Z,69.67
2023-03-06T17:25:08.996Z,69.57
2023-03-06T17:27:36.354Z,69.89
2023-03-06T17:30:04.258Z,69.87
2023-03-06T17:32:32.158Z,70.08
2023-03-06T17:34:58.825Z,70.05
2023-03-06T17:38:01.434Z,70.71
2023-03-06T17:40:29.698Z,70.73
2023-03-06T17:42:56.480Z,70.71
2023-03-06T17:45:22.970Z,70.82
2023-03-06T17:47:53.378Z,71.03
2023-03-06T17:50:20.046Z,71.11
2023-03-06T17:52:46.970Z,71.07
2023-03-06T17:55:13.848Z,71.36
2023-03-06T17:57:40.418Z,71.34
2023-03-06T18:00:07.738Z,71.38
2023-03-06T18:02:38.800Z,71.48
2023-03-06T18:05:06.209Z,71.58
2023-03-06T18:07:32.735Z,71.52
2023-03-06T18:09:59.278Z,71.57
2023-03-06T18:12:25.963Z,71.74
2023-03-06T18:14:52.487Z,71.61
2023-03-06T18:17:19.020Z,71.81
2023-03-06T18:19:45.549Z,71.55
2023-03-06T18:22:12.068Z,71.69
2023-03-06T18:24:38.574Z,71.63
2023-03-06T18:27:05.187Z,71.54
2023-03-06T18:29:31.679Z,71.41
2023-03-06T18:31:59.278Z,71.29
2023-03-06T18:34:26.062Z,71.30
2023-03-06T18:36:52.977Z,71.06
2023-03-06T18:39:21.442Z,70.81
2023-03-06T18:41:48.330Z,70.89
2023-03-06T18:44:16.171Z,70.91
2023-03-06T18:46:43.332Z,70.65
2023-03-06T18:49:11.461Z,70.59
2023-03-06T18:51:38.238Z,70.45
2023-03-06T18:54:06.321Z,70.22
2023-03-06T18:56:33.361Z,70.26
2023-03-06T18:59:06.752Z,70.24
2023-03-06T19:01:33.818Z,70.10
2023-03-06T19:04:04.085Z,70.17
2023-03-06T19:06:30.948Z,70.14
2023-03-06T19:08:58.821Z,70.16
2023-03-06T19:11:26.883Z,70.12
2023-03-06T19:13:53.988Z,70.17
2023-03-06T19:16:23.590Z,70.09
2023-03-06T19:18:50.481Z,70.03
2023-03-06T19:21:21.825Z,70.28
2023-03-06T19:23:48.733Z,70.40
2023-03-06T19:26:16.264Z,70.25
2023-03-06T19:28:43.256Z,70.18
2023-03-06T19:31:19.571Z,70.25
2023-03-06T19:33:47.608Z,70.11
2023-03-06T19:36:15.066Z,70.06
2023-03-06T19:38:42.157Z,70.10
2023-03-06T19:41:13.362Z,69.82
2023-03-06T19:43:41.813Z,70.09
2023-03-06T19:46:14.721Z,70.40
2023-03-06T19:48:42.189Z,70.09
2023-03-06T19:51:09.797Z,70.39
2023-03-06T19:53:36.655Z,70.63
2023-03-06T19:56:08.731Z,70.84
2023-03-06T19:58:35.728Z,70.91
2023-03-06T20:01:10.707Z,70.94
2023-03-06T20:03:37.569Z,71.15
2023-03-06T20:06:08.961Z,71.30
2023-03-06T20:08:36.422Z,71.23
2023-03-06T20:11:03.168Z,71.27
2023-03-06T20:13:30.042Z,71.26
2023-03-06T20:15:57.871Z,71.34
2023-03-06T20:18:24.372Z,71.45
2023-03-06T20:21:01.129Z,71.73
2023-03-06T20:23:27.808Z,71.43
2023-03-06T20:25:54.713Z,71.58
2023-03-06T20:28:22.172Z,71.67
2023-03-06T20:30:49.177Z,71.70
2023-03-06T20:33:16.732Z,71.62
2023-03-06T20:35:43.826Z,71.92
2023-03-06T20:38:10.764Z,71.76
2023-03-06T20:40:38.887Z,71.68
2023-03-06T20:43:05.602Z,71.96
2023-03-06T20:45:32.792Z,71.87
2023-03-06T20:47:59.254Z,71.91
2023-03-06T20:50:26.231Z,71.99
2023-03-06T20:52:56.688Z,72.01
2023-03-06T20:55:23.197Z,72.01
2023-03-06T20:57:50.481Z,72.18
2023-03-06T21:00:18.653Z,72.41
2023-03-06T21:02:45.244Z,72.61
2023-03-06T21:05:11.728Z,72.58
2023-03-06T21:07:39.458Z,72.75
2023-03-06T21:10:06.787Z,72.83
2023-03-06T21:12:33.272Z,73.07
2023-03-06T21:14:59.869Z,73.04
2023-03-06T21:17:27.393Z,72.91
2023-03-06T21:19:53.835Z,73.10
2023-03-06T21:22:20.273Z,73.20
2023-03-06T21:24:46.768Z,73.40
2023-03-06T21:27:13.282Z,73.37
2023-03-06T21:29:39.775Z,73.21
2023-03-06T21:32:06.252Z,73.22
2023-03-06T21:34:33.229Z,73.79
2023-03-06T21:36:59.812Z,73.61
2023-03-06T21:39:26.246Z,74.02
2023-03-06T21:41:52.754Z,74.08
2023-03-06T21:44:19.644Z,74.09
2023-03-06T21:46:46.446Z,74.36
2023-03-06T21:49:12.906Z,74.53
2023-03-06T21:51:39.549Z,74.68
2023-03-06T21:54:06.599Z,74.87
2023-03-06T21:56:33.514Z,74.68
2023-03-06T21:59:00.153Z,74.77
2023-03-06T22:01:28.581Z,74.60
2023-03-06T22:03:55.408Z,74.76
2023-03-06T22:06:24.137Z,74.83
2023-03-06T22:08:51.110Z,74.71
2023-03-06T22:11:19.871Z,74.84
2023-03-06T22:13:47.943Z,75.00
2023-03-06T22:16:15.147Z,74.90
2023-03-06T22:18:46.045Z,74.67
2023-03-06T22:21:14.972Z,74.59
2023-03-06T22:23:41.717Z,74.59
2023-03-06T22:26:12.529Z,74.57
2023-03-06T22:28:39.852Z,74.27
2023-03-06T22:31:14.733Z,74.15
2023-03-06T22:33:41.392Z,74.34
2023-03-06T22:36:10.805Z,74.06
2023-03-06T22:38:39.857Z,73.74
2023-03-06T22:41:07.188Z,73.53
2023-03-06T22:43:34.638Z,73.33
2023-03-06T22:46:02.466Z,73.37
2023-03-06T22:48:29.183Z,73.38
2023-03-06T22:50:55.653Z,73.02
2023-03-06T22:53:22.098Z,72.78
2023-03-06T22:55:48.593Z,72.76
2023-03-06T22:58:15.317Z,72.83
2023-03-06T23:00:41.739Z,72.92
2023-03-06T23:03:08.296Z,72.63
2023-03-06T23:05:34.774Z,72.48
2023-03-06T23:08:01.198Z,72.52
2023-03-06T23:10:27.624Z,72.62
2023-03-06T23:13:13.453Z,72.29
2023-03-06T23:16:02.397Z,72.33
2023-03-06T23:18:47.401Z,72.14
2023-03-06T23:21:34.127Z,72.19
2023-03-06T23:24:19.430Z,71.71
2023-03-06T23:26:46.216Z,71.73
2023-03-06T23:29:12.915Z,71.58
2023-03-06T23:31:39.704Z,71.96
2023-03-06T23:34:06.244Z,71.70
2023-03-06T23:36:32.901Z,71.60
2023-03-06T23:38:59.357Z,71.55
2023-03-06T23:41:26.106Z,71.62
2023-03-06T23:43:55.056Z,71.33
2023-03-06T23:46:22.103Z,71.77
2023-03-06T23:48:48.554Z,71.45
2023-03-06T23:51:20.224Z,71.49
2023-03-06T23:53:47.956Z,71.25
2023-03-06T23:56:14.483Z,71.24
2023-03-06T23:58:41.139Z,71.04
